createdAt,value
2019-04-20T00:00:40.159Z,7.62
2019-04-20T00:02:44.046Z,7.55
2019-04-20T00:04:51.467Z,7.92
2019-04-20T00:06:59.195Z,7.17
2019-04-20T00:09:13.978Z,6.95
2019-04-20T00:11:25.474Z,7.92
2019-04-20T00:13:38.388Z,7.60
2019-04-20T00:15:34.618Z,7.35
2019-04-20T00:17:48.626Z,7.50
2019-04-20T00:19:53.795Z,7.78
2019-04-20T00:22:15.652Z,7.35
2019-04-20T00:24:29.217Z,7.12
2019-04-20T00:27:04.683Z,8.38
2019-04-20T00:29:04.473Z,7.45
2019-04-20T00:31:11.155Z,7.60
2019-04-20T00:33:09.657Z,7.60
2019-04-20T00:35:08.264Z,7.53
2019-04-20T00:37:17.093Z,7.30
2019-04-20T00:39:23.993Z,6.83
2019-04-20T00:41:35.153Z,6.90
2019-04-20T00:43:41.705Z,7.03
2019-04-20T00:45:57.350Z,6.75
2019-04-20T00:48:03.431Z,7.10
2019-04-20T00:50:24.492Z,6.87
2019-04-20T00:52:44.484Z,7.62
2019-04-20T00:54:22.213Z,7.50
2019-04-20T00:56:29.063Z,8.03
2019-04-20T00:58:50.474Z,7.87
2019-04-20T01:01:08.292Z,8.05
2019-04-20T01:03:12.029Z,7.28
2019-04-20T01:05:19.985Z,7.17
2019-04-20T01:07:24.232Z,6.80
2019-04-20T01:09:39.179Z,7.35
2019-04-20T01:11:48.257Z,6.85
2019-04-20T01:14:00.173Z,7.25
2019-04-20T01:16:08.716Z,7.08
2019-04-20T01:18:14.019Z,6.62
2019-04-20T01:20:22.674Z,7.58
2019-04-20T01:22:35.265Z,7.15
2019-04-20T01:24:43.271Z,7.35
2019-04-20T01:26:51.638Z,7.10
2019-04-20T01:29:09.034Z,6.60
2019-04-20T01:31:15.690Z,7.50
2019-04-20T01:33:25.873Z,6.75
2019-04-20T01:35:38.268Z,6.65
2019-04-20T01:37:39.110Z,6.60
2019-04-20T01:39:43.470Z,7.03
2019-04-20T01:41:45.427Z,6.50
2019-04-20T01:43:52.348Z,6.15
2019-04-20T01:46:05.066Z,6.72
2019-04-20T01:48:08.335Z,7.08
2019-04-20T01:50:21.174Z,6.42
2019-04-20T01:52:29.881Z,6.58
2019-04-20T01:54:52.889Z,6.12
2019-04-20T01:56:54.949Z,6.90
2019-04-20T01:59:10.180Z,6.40
2019-04-20T02:01:19.185Z,7.15
2019-04-20T02:03:43.972Z,6.80
2019-04-20T02:05:56.487Z,7.03
2019-04-20T02:07:57.437Z,6.37
2019-04-20T02:10:11.727Z,6.62
2019-04-20T02:12:23.597Z,7.25
2019-04-20T02:14:35.064Z,7.10
2019-04-20T02:16:39.210Z,6.40
2019-04-20T02:18:58.925Z,6.55
2019-04-20T02:21:12.201Z,7.50
2019-04-20T02:23:10.658Z,7.33
2019-04-20T02:25:10.295Z,6.12
2019-04-20T02:27:20.605Z,6.25
2019-04-20T02:29:46.243Z,6.40
2019-04-20T02:32:19.919Z,6.75
2019-04-20T02:40:57.259Z,7.03
2019-04-20T02:43:09.608Z,8.18
2019-04-20T02:45:28.594Z,9.58
2019-04-20T02:47:35.749Z,9.63
2019-04-20T02:51:42.278Z,11.18
2019-04-20T02:54:12.984Z,13.48
2019-04-20T02:55:55.681Z,14.35
2019-04-20T02:58:03.460Z,20.23
2019-04-20T03:00:12.512Z,18.65
2019-04-20T03:02:06.050Z,15.98
2019-04-20T03:04:02.081Z,14.83
2019-04-20T03:06:20.736Z,14.18
2019-04-20T03:08:30.416Z,14.68
2019-04-20T03:10:52.484Z,13.32
2019-04-20T03:12:59.723Z,13.43
2019-04-20T03:14:55.266Z,13.08
2019-04-20T03:17:18.246Z,13.48
2019-04-20T03:19:17.457Z,13.10
2019-04-20T03:21:33.300Z,14.87
2019-04-20T03:23:42.818Z,13.70
2019-04-20T03:25:53.328Z,13.75
2019-04-20T03:28:00.922Z,13.90
2019-04-20T03:30:22.009Z,14.00
2019-04-20T03:32:57.921Z,14.05
2019-04-20T03:34:54.967Z,13.05
2019-04-20T03:36:42.864Z,13.60
2019-04-20T03:38:41.483Z,14.25
2019-04-20T03:40:45.318Z,14.28
2019-04-20T03:42:40.508Z,14.68
2019-04-20T03:44:53.816Z,14.25
2019-04-20T03:47:01.304Z,13.83
2019-04-20T03:49:22.354Z,14.10
2019-04-20T03:51:35.903Z,13.53
2019-04-20T03:53:46.264Z,13.88
2019-04-20T03:56:00.675Z,10.85
2019-04-20T03:58:10.780Z,9.80
2019-04-20T04:00:22.023Z,9.85
2019-04-20T04:02:54.404Z,9.25
2019-04-20T04:04:49.444Z,11.85
2019-04-20T04:06:47.047Z,9.60
2019-04-20T04:09:02.763Z,9.08
2019-04-20T04:11:16.256Z,8.68
2019-04-20T04:13:20.806Z,9.03
2019-04-20T04:15:27.750Z,9.20
2019-04-20T04:17:38.915Z,8.10
2019-04-20T04:19:51.176Z,8.25
2019-04-20T04:22:07.830Z,8.98
2019-04-20T04:24:14.348Z,8.63
2019-04-20T04:26:29.269Z,8.30
2019-04-20T04:28:31.173Z,8.70
2019-04-20T04:30:40.550Z,8.18
2019-04-20T04:33:29.434Z,8.95
2019-04-20T04:35:04.308Z,9.28
2019-04-20T04:37:13.215Z,8.85
2019-04-20T04:39:25.194Z,8.88
2019-04-20T04:41:36.801Z,8.85
2019-04-20T04:43:39.786Z,8.83
2019-04-20T04:45:31.683Z,8.03
2019-04-20T04:47:38.711Z,9.58
2019-04-20T04:49:55.227Z,8.28
2019-04-20T04:52:02.243Z,8.40
2019-04-20T04:54:13.734Z,9.05
2019-04-20T04:56:15.171Z,8.38
2019-04-20T04:58:21.487Z,9.00
2019-04-20T05:00:32.498Z,9.25
2019-04-20T05:02:41.872Z,7.53
2019-04-20T05:05:10.134Z,9.90
2019-04-20T05:07:11.513Z,8.30
2019-04-20T05:09:10.385Z,9.30
2019-04-20T05:11:17.193Z,8.43
2019-04-20T05:13:26.748Z,8.75
2019-04-20T05:15:48.446Z,7.80
2019-04-20T05:18:04.441Z,8.68
2019-04-20T05:20:12.365Z,8.23
2019-04-20T05:22:19.356Z,7.80
2019-04-20T05:24:29.267Z,7.58
2019-04-20T05:26:49.336Z,8.88
2019-04-20T05:28:48.573Z,9.25
2019-04-20T05:30:52.562Z,8.80
2019-04-20T05:33:03.133Z,8.33
2019-04-20T05:35:26.940Z,8.80
2019-04-20T05:37:46.958Z,8.23
2019-04-20T05:39:45.789Z,8.63
2019-04-20T05:41:50.397Z,8.43
2019-04-20T05:43:56.576Z,8.88
2019-04-20T05:46:03.223Z,8.03
2019-04-20T05:48:15.554Z,8.28
2019-04-20T05:50:29.281Z,8.05
2019-04-20T05:52:44.138Z,8.60
2019-04-20T05:54:48.982Z,8.38
2019-04-20T05:57:00.889Z,9.05
2019-04-20T05:58:59.914Z,8.48
2019-04-20T06:01:16.144Z,8.45
2019-04-20T06:03:18.487Z,9.15
2019-04-20T06:05:27.565Z,8.78
2019-04-20T06:07:38.020Z,9.23
2019-04-20T06:09:48.866Z,8.93
2019-04-20T06:12:07.776Z,8.95
2019-04-20T06:13:56.941Z,8.80
2019-04-20T06:16:20.023Z,8.88
2019-04-20T06:18:29.935Z,8.53
2019-04-20T06:21:02.323Z,9.08
2019-04-20T06:27:21.500Z,9.58
2019-04-20T06:29:26.328Z,9.88
2019-04-20T06:31:42.551Z,9.10
2019-04-20T06:36:43.133Z,8.98
2019-04-20T06:38:59.820Z,9.10
2019-04-20T06:41:00.894Z,9.35
2019-04-20T06:43:05.124Z,9.88
2019-04-20T06:45:20.074Z,9.70
2019-04-20T06:47:24.411Z,9.25
2019-04-20T06:49:33.217Z,8.68
2019-04-20T06:51:47.428Z,8.70
2019-04-20T06:53:52.603Z,9.28
2019-04-20T06:56:17.222Z,8.38
2019-04-20T06:58:39.574Z,8.35
2019-04-20T07:00:36.881Z,8.13
2019-04-20T07:02:44.629Z,8.80
2019-04-20T07:07:07.054Z,9.00
2019-04-20T07:11:18.342Z,9.10
2019-04-20T07:13:19.303Z,8.75
2019-04-20T07:19:56.493Z,9.08
2019-04-20T07:22:25.069Z,9.23
2019-04-20T07:24:25.522Z,9.55
2019-04-20T07:26:35.643Z,8.55
2019-04-20T07:30:51.991Z,8.38
2019-04-20T07:32:59.717Z,8.33
2019-04-20T07:37:42.722Z,9.03
2019-04-20T07:39:37.904Z,7.87
2019-04-20T07:42:04.515Z,8.98
2019-04-20T07:44:01.158Z,7.53
2019-04-20T07:45:55.940Z,7.37
2019-04-20T07:48:13.696Z,7.97
2019-04-20T07:50:13.210Z,7.28
2019-04-20T07:54:40.161Z,7.85
2019-04-20T07:56:42.531Z,7.35
2019-04-20T08:01:09.039Z,7.27
2019-04-20T08:03:26.528Z,7.03
2019-04-20T08:05:24.594Z,7.28
2019-04-20T08:07:17.880Z,7.42
2019-04-20T08:09:34.905Z,7.37
2019-04-20T08:11:55.500Z,7.50
2019-04-20T08:14:08.732Z,6.55
2019-04-20T08:16:20.368Z,7.35
2019-04-20T08:18:27.180Z,7.58
2019-04-20T08:20:36.346Z,7.42
2019-04-20T08:22:42.197Z,10.80
2019-04-20T08:24:42.936Z,9.23
2019-04-20T08:26:45.380Z,7.40
2019-04-20T08:28:55.214Z,7.35
2019-04-20T08:31:19.584Z,7.50
2019-04-20T08:33:45.139Z,7.22
2019-04-20T08:35:52.569Z,7.42
2019-04-20T08:38:19.909Z,6.30
2019-04-20T08:40:07.482Z,7.03
2019-04-20T08:42:16.282Z,7.30
2019-04-20T08:44:46.942Z,6.85
2019-04-20T08:46:37.814Z,6.58
2019-04-20T08:48:40.880Z,6.90
2019-04-20T08:50:50.682Z,7.12
2019-04-20T08:55:07.635Z,6.55
2019-04-20T08:56:57.107Z,7.30
2019-04-20T08:59:02.297Z,6.95
2019-04-20T09:01:14.084Z,6.62
2019-04-20T09:03:25.380Z,6.45
2019-04-20T09:05:39.931Z,6.80
2019-04-20T09:07:50.106Z,6.78
2019-04-20T09:10:10.100Z,6.78
2019-04-20T09:12:13.567Z,6.50
2019-04-20T09:14:21.421Z,6.83
2019-04-20T09:16:38.786Z,7.50
2019-04-20T09:18:47.763Z,7.60
2019-04-20T09:20:58.462Z,7.08
2019-04-20T09:23:21.576Z,6.70
2019-04-20T09:27:38.383Z,6.47
2019-04-20T09:29:54.627Z,6.00
2019-04-20T09:32:06.731Z,6.40
2019-04-20T09:34:16.127Z,6.60
2019-04-20T09:36:40.541Z,6.87
2019-04-20T09:38:47.860Z,6.65
2019-04-20T09:41:09.128Z,6.45
2019-04-20T09:43:02.224Z,6.83
2019-04-20T09:45:18.109Z,6.08
2019-04-20T09:47:27.453Z,5.30
2019-04-20T09:51:50.591Z,5.47
2019-04-20T09:53:54.993Z,5.92
2019-04-20T09:56:14.623Z,5.97
2019-04-20T09:58:21.309Z,5.97
2019-04-20T10:00:37.171Z,6.20
2019-04-20T10:02:32.813Z,5.83
2019-04-20T10:04:37.605Z,5.62
2019-04-20T10:06:45.565Z,5.60
2019-04-20T10:11:01.517Z,5.22
2019-04-20T10:13:09.178Z,5.50
2019-04-20T10:15:20.971Z,5.62
2019-04-20T10:17:27.076Z,6.20
2019-04-20T10:19:35.707Z,4.40
2019-04-20T10:21:41.585Z,4.08
2019-04-20T10:23:48.426Z,4.15
2019-04-20T10:25:56.429Z,3.95
2019-04-20T10:28:03.477Z,4.08
2019-04-20T10:30:10.951Z,3.42
2019-04-20T10:32:17.976Z,3.80
2019-04-20T10:34:26.433Z,3.62
2019-04-20T10:36:39.585Z,3.87
2019-04-20T10:38:46.591Z,3.83
2019-04-20T10:41:03.306Z,3.55
2019-04-20T10:43:03.139Z,3.90
2019-04-20T10:45:10.909Z,3.67
2019-04-20T10:47:18.876Z,3.90
2019-04-20T10:49:27.066Z,3.50
2019-04-20T10:51:33.849Z,3.70
2019-04-20T10:53:40.553Z,3.80
2019-04-20T10:55:47.444Z,3.58
2019-04-20T10:57:55.482Z,4.12
2019-04-20T11:00:03.710Z,4.00
2019-04-20T11:02:12.167Z,3.83
2019-04-20T11:04:18.883Z,3.67
2019-04-20T11:06:26.818Z,3.90
2019-04-20T11:08:34.849Z,3.20
2019-04-20T11:10:55.469Z,3.02
2019-04-20T11:12:53.308Z,3.20
2019-04-20T11:15:00.642Z,3.12
2019-04-20T11:17:08.667Z,3.17
2019-04-20T11:19:15.736Z,2.98
2019-04-20T11:21:24.494Z,2.87
2019-04-20T11:23:32.011Z,2.87
2019-04-20T11:25:39.774Z,2.67
2019-04-20T11:27:47.984Z,3.00
2019-04-20T11:29:55.992Z,2.60
2019-04-20T11:32:03.170Z,3.20
2019-04-20T11:34:10.317Z,2.87
2019-04-20T11:36:17.215Z,2.83
2019-04-20T11:38:24.085Z,2.80
2019-04-20T11:40:31.045Z,2.75
2019-04-20T11:42:37.701Z,2.87
2019-04-20T11:44:44.821Z,2.58
2019-04-20T11:46:52.536Z,2.90
2019-04-20T11:48:59.585Z,2.90
2019-04-20T11:51:07.449Z,2.95
2019-04-20T11:53:15.304Z,2.80
2019-04-20T11:55:22.412Z,2.75
2019-04-20T11:57:29.330Z,2.83
2019-04-20T11:59:37.136Z,2.50
2019-04-20T12:02:05.897Z,2.80
2019-04-20T12:04:27.158Z,3.08
2019-04-20T12:06:23.151Z,5.10
2019-04-20T12:08:32.153Z,3.10
2019-04-20T12:10:39.357Z,3.08
2019-04-20T12:12:50.222Z,3.25
2019-04-20T12:14:54.819Z,2.92
2019-04-20T12:17:03.776Z,2.85
2019-04-20T12:19:10.734Z,2.72
2019-04-20T12:21:18.728Z,2.85
2019-04-20T12:23:26.486Z,2.87
2019-04-20T12:25:35.918Z,2.60
2019-04-20T12:27:49.713Z,2.50
2019-04-20T12:29:51.960Z,2.50
2019-04-20T12:32:02.248Z,2.50
2019-04-20T12:34:08.459Z,2.50
2019-04-20T12:36:16.345Z,2.30
2019-04-20T12:38:23.220Z,2.22
2019-04-20T12:40:30.166Z,2.02
2019-04-20T12:42:37.108Z,2.15
2019-04-20T12:44:43.839Z,2.20
2019-04-20T12:46:51.895Z,2.17
2019-04-20T12:48:59.789Z,2.10
2019-04-20T12:51:07.822Z,2.20
2019-04-20T12:53:14.877Z,2.00
2019-04-20T12:55:22.855Z,2.20
2019-04-20T12:57:29.669Z,2.10
2019-04-20T12:59:36.338Z,2.40
2019-04-20T13:01:43.744Z,2.33
2019-04-20T13:03:51.648Z,2.20
2019-04-20T13:05:58.491Z,2.60
2019-04-20T13:08:06.187Z,2.20
2019-04-20T13:10:15.844Z,2.40
2019-04-20T13:12:23.502Z,2.50
2019-04-20T13:15:00.319Z,2.10
2019-04-20T13:17:08.313Z,2.20
2019-04-20T13:19:15.210Z,2.50
2019-04-20T13:21:22.986Z,2.52
2019-04-20T13:23:31.017Z,2.70
2019-04-20T13:25:38.906Z,2.00
2019-04-20T13:27:47.045Z,2.45
2019-04-20T13:29:54.686Z,2.52
2019-04-20T13:32:02.714Z,2.67
2019-04-20T13:34:11.473Z,2.50
2019-04-20T13:36:18.168Z,2.42
2019-04-20T13:38:25.819Z,2.35
2019-04-20T13:40:33.432Z,2.40
2019-04-20T13:42:41.411Z,2.70
2019-04-20T13:44:50.685Z,2.30
2019-04-20T13:46:58.527Z,2.92
2019-04-20T13:49:06.926Z,2.97
2019-04-20T13:51:14.724Z,2.42
2019-04-20T13:53:21.651Z,2.70
2019-04-20T13:55:30.141Z,2.70
2019-04-20T13:57:39.963Z,2.25
2019-04-20T13:59:52.140Z,2.80
2019-04-20T14:02:00.848Z,2.60
2019-04-20T14:04:12.751Z,2.50
2019-04-20T14:06:22.389Z,2.60
2019-04-20T14:08:29.717Z,2.55
2019-04-20T14:10:37.672Z,2.47
2019-04-20T14:12:55.442Z,3.05
2019-04-20T14:14:53.268Z,2.80
2019-04-20T14:17:01.214Z,2.35
2019-04-20T14:19:09.191Z,3.00
2019-04-20T14:21:16.347Z,2.72
2019-04-20T14:23:23.281Z,2.62
2019-04-20T14:25:31.176Z,2.60
2019-04-20T14:27:39.056Z,2.70
2019-04-20T14:29:46.457Z,2.72
2019-04-20T14:31:53.124Z,2.80
2019-04-20T14:33:59.877Z,2.83
2019-04-20T14:36:06.648Z,2.72
2019-04-20T14:38:13.313Z,2.47
2019-04-20T14:40:21.992Z,2.65
2019-04-20T14:42:36.475Z,2.92
2019-04-20T14:44:39.480Z,2.85
2019-04-20T14:46:47.552Z,3.15
2019-04-20T14:48:54.630Z,2.52
2019-04-20T14:51:01.587Z,2.75
2019-04-20T14:53:09.482Z,2.55
2019-04-20T14:55:19.415Z,2.72
2019-04-20T14:57:27.539Z,2.50
2019-04-20T14:59:36.058Z,4.55
2019-04-20T15:01:56.769Z,3.33
2019-04-20T15:04:12.849Z,2.70
2019-04-20T15:06:13.724Z,2.65
2019-04-20T15:08:22.829Z,2.83
2019-04-20T15:10:31.100Z,3.20
2019-04-20T15:12:47.351Z,2.52
2019-04-20T15:14:46.834Z,3.22
2019-04-20T15:16:53.701Z,3.10
2019-04-20T15:19:00.182Z,2.90
2019-04-20T15:21:09.341Z,2.70
2019-04-20T15:23:19.406Z,2.58
2019-04-20T15:25:27.397Z,2.85
2019-04-20T15:27:35.204Z,2.67
2019-04-20T15:29:42.244Z,2.90
2019-04-20T15:31:50.105Z,3.83
2019-04-20T15:33:57.109Z,3.17
2019-04-20T15:36:04.264Z,2.83
2019-04-20T15:38:11.268Z,2.95
2019-04-20T15:40:19.334Z,2.80
2019-04-20T15:42:27.499Z,2.70
2019-04-20T15:44:35.578Z,3.20
2019-04-20T15:46:43.507Z,2.30
2019-04-20T15:48:50.378Z,2.70
2019-04-20T15:50:58.875Z,3.65
2019-04-20T15:53:06.009Z,3.37
2019-04-20T15:55:22.624Z,3.05
2019-04-20T15:57:27.630Z,3.40
2019-04-20T15:59:32.982Z,2.90
2019-04-20T16:01:47.270Z,2.83
2019-04-20T16:03:57.236Z,2.60
2019-04-20T16:06:07.329Z,2.52
2019-04-20T16:08:16.275Z,2.47
2019-04-20T16:10:23.342Z,2.98
2019-04-20T16:12:31.085Z,3.02
2019-04-20T16:14:39.528Z,3.15
2019-04-20T16:16:46.634Z,3.30
2019-04-20T16:18:54.904Z,2.92
2019-04-20T16:21:07.872Z,2.85
2019-04-20T16:23:10.372Z,2.90
2019-04-20T16:25:21.589Z,2.95
2019-04-20T16:27:28.077Z,3.92
2019-04-20T16:29:37.767Z,4.42
2019-04-20T16:31:48.108Z,3.40
2019-04-20T16:33:56.465Z,4.35
2019-04-20T16:36:02.608Z,4.30
2019-04-20T16:38:10.723Z,3.75
2019-04-20T16:40:17.796Z,4.45
2019-04-20T16:42:24.527Z,4.75
2019-04-20T16:44:31.419Z,5.75
2019-04-20T16:46:38.403Z,7.62
2019-04-20T16:48:46.280Z,6.35
2019-04-20T16:50:55.180Z,5.03
2019-04-20T16:55:11.280Z,4.75
2019-04-20T16:57:17.713Z,4.97
2019-04-20T16:59:24.787Z,5.10
2019-04-20T17:01:31.773Z,5.30
2019-04-20T17:03:49.296Z,5.80
2019-04-20T17:05:49.750Z,5.92
2019-04-20T17:07:57.403Z,5.55
2019-04-20T17:10:07.500Z,4.95
2019-04-20T17:12:15.419Z,5.17
2019-04-20T17:14:23.740Z,5.50
2019-04-20T17:16:31.655Z,5.50
2019-04-20T17:18:39.346Z,5.28
2019-04-20T17:20:46.585Z,5.90
2019-04-20T17:22:54.268Z,5.83
2019-04-20T17:25:01.838Z,5.22
2019-04-20T17:27:10.863Z,5.65
2019-04-20T17:29:22.120Z,5.25
2019-04-20T17:31:31.550Z,5.60
2019-04-20T17:33:50.492Z,13.15
2019-04-20T17:35:59.116Z,9.45
2019-04-20T17:37:58.384Z,7.12
2019-04-20T17:40:27.179Z,7.92
2019-04-20T17:42:32.451Z,9.70
2019-04-20T17:44:36.105Z,10.88
2019-04-20T17:46:41.936Z,13.80
2019-04-20T17:48:59.698Z,14.23
2019-04-20T17:51:15.655Z,15.72
2019-04-20T17:53:08.919Z,15.13
2019-04-20T17:55:32.248Z,15.20
2019-04-20T17:57:33.579Z,16.27
2019-04-20T17:59:44.824Z,15.53
2019-04-20T18:02:05.450Z,15.98
2019-04-20T18:04:31.074Z,15.35
2019-04-20T18:06:28.906Z,15.18
2019-04-20T18:08:36.933Z,15.93
2019-04-20T18:10:44.123Z,17.25
2019-04-20T18:12:43.955Z,15.43
2019-04-20T18:14:58.454Z,15.88
2019-04-20T18:17:21.473Z,15.90
2019-04-20T18:19:25.691Z,14.47
2019-04-20T18:21:34.873Z,12.00
2019-04-20T18:23:46.261Z,18.52
2019-04-20T18:26:15.234Z,26.95
2019-04-20T18:28:13.802Z,28.38
2019-04-20T18:30:27.435Z,34.23
2019-04-20T18:32:38.286Z,39.40
2019-04-20T18:34:54.139Z,31.42
2019-04-20T18:36:56.387Z,27.52
2019-04-20T18:39:07.975Z,24.07
2019-04-20T18:41:23.130Z,27.42
2019-04-20T18:43:23.952Z,40.45
2019-04-20T18:45:48.129Z,51.98
2019-04-20T18:48:03.979Z,51.53
2019-04-20T18:49:58.554Z,45.83
2019-04-20T18:51:57.768Z,40.63
2019-04-20T18:54:08.310Z,34.73
2019-04-20T18:56:19.028Z,24.40
2019-04-20T18:58:22.848Z,19.95
2019-04-20T19:00:33.746Z,21.97
2019-04-20T19:02:42.878Z,18.23
2019-04-20T19:04:47.982Z,21.37
2019-04-20T19:06:56.058Z,21.25
2019-04-20T19:09:09.461Z,20.95
2019-04-20T19:11:17.821Z,21.02
2019-04-20T19:13:34.156Z,19.82
2019-04-20T19:16:09.334Z,18.07
2019-04-20T19:18:17.242Z,18.82
2019-04-20T19:20:16.057Z,17.90
2019-04-20T19:22:23.931Z,19.02
2019-04-20T19:24:33.561Z,20.25
2019-04-20T19:26:46.657Z,19.85
2019-04-20T19:28:53.895Z,16.32
2019-04-20T19:31:11.437Z,17.65
2019-04-20T19:33:24.623Z,15.53
2019-04-20T19:35:30.855Z,17.10
2019-04-20T19:37:31.151Z,17.85
2019-04-20T19:39:50.980Z,19.10
2019-04-20T19:41:51.701Z,14.93
2019-04-20T19:44:03.999Z,13.28
2019-04-20T19:46:39.286Z,14.70
2019-04-20T19:48:21.989Z,15.10
2019-04-20T19:50:54.707Z,13.10
2019-04-20T19:52:51.642Z,13.65
2019-04-20T19:54:56.860Z,15.03
2019-04-20T19:56:58.559Z,15.13
2019-04-20T19:59:07.165Z,15.40
2019-04-20T20:01:03.632Z,15.32
2019-04-20T20:03:10.367Z,15.32
2019-04-20T20:05:19.297Z,14.78
2019-04-20T20:07:32.140Z,13.72
2019-04-20T20:09:41.829Z,12.43
2019-04-20T20:11:46.785Z,10.68
2019-04-20T20:13:56.834Z,10.63
2019-04-20T20:16:10.538Z,9.50
2019-04-20T20:18:30.932Z,8.63
2019-04-20T20:20:44.142Z,8.58
2019-04-20T20:22:37.767Z,9.53
2019-04-20T20:24:38.904Z,9.45
2019-04-20T20:26:52.663Z,9.25
2019-04-20T20:29:09.294Z,10.23
2019-04-20T20:31:17.141Z,9.50
2019-04-20T20:33:32.781Z,9.25
2019-04-20T20:35:25.985Z,8.10
2019-04-20T20:37:39.188Z,7.15
2019-04-20T20:39:42.124Z,8.28
2019-04-20T20:41:57.823Z,9.18
2019-04-20T20:44:03.665Z,9.80
2019-04-20T20:46:18.516Z,10.03
2019-04-20T20:48:29.783Z,10.25
2019-04-20T20:50:41.066Z,10.18
2019-04-20T20:56:55.590Z,8.90
2019-04-20T20:59:03.992Z,10.82
2019-04-20T21:01:14.422Z,11.15
2019-04-20T21:03:22.186Z,10.35
2019-04-20T21:05:21.948Z,11.55
2019-04-20T21:07:28.909Z,11.55
2019-04-20T21:09:35.591Z,10.23
2019-04-20T21:11:42.392Z,10.15
2019-04-20T21:13:52.129Z,8.38
2019-04-20T21:16:03.490Z,8.20
2019-04-20T21:18:29.410Z,8.30
2019-04-20T21:20:38.235Z,8.28
2019-04-20T21:22:46.661Z,11.05
2019-04-20T21:24:35.716Z,7.45
2019-04-20T21:26:44.228Z,7.35
2019-04-20T21:28:52.255Z,7.42
2019-04-20T21:31:08.305Z,7.78
2019-04-20T21:33:09.318Z,6.85
2019-04-20T21:35:16.527Z,7.33
2019-04-20T21:37:27.043Z,12.98
2019-04-20T21:39:43.669Z,7.78
2019-04-20T21:41:50.939Z,7.40
2019-04-20T21:43:49.927Z,6.50
2019-04-20T21:46:01.765Z,6.83
2019-04-20T21:48:10.011Z,6.62
2019-04-20T21:50:34.174Z,6.65
2019-04-20T21:54:30.006Z,6.20
2019-04-20T21:56:38.342Z,6.60
2019-04-20T21:58:51.372Z,7.03
2019-04-20T22:01:10.915Z,6.90
2019-04-20T22:03:09.856Z,6.65
2019-04-20T22:07:20.747Z,6.35
2019-04-20T22:09:34.554Z,6.12
2019-04-20T22:11:37.924Z,5.95
2019-04-20T22:13:47.422Z,6.35
2019-04-20T22:15:58.575Z,6.03
2019-04-20T22:18:07.958Z,7.00
2019-04-20T22:20:22.736Z,8.15
2019-04-20T22:22:39.784Z,14.78
2019-04-20T22:24:42.147Z,7.50
2019-04-20T22:26:51.384Z,6.55
2019-04-20T22:28:44.615Z,6.75
2019-04-20T22:30:51.591Z,6.80
2019-04-20T22:33:00.982Z,7.00
2019-04-20T22:35:12.597Z,7.42
2019-04-20T22:37:22.981Z,6.58
2019-04-20T22:39:39.082Z,6.35
2019-04-20T22:41:40.954Z,6.20
2019-04-20T22:43:50.422Z,6.33
2019-04-20T22:45:57.298Z,6.45
2019-04-20T22:48:08.332Z,6.05
2019-04-20T22:50:25.485Z,5.28
2019-04-20T22:52:34.893Z,4.95
2019-04-20T22:54:47.805Z,5.37
2019-04-20T22:56:50.907Z,5.30
2019-04-20T22:58:56.339Z,4.97
2019-04-20T23:01:01.016Z,4.97
2019-04-20T23:03:03.019Z,4.70
2019-04-20T23:05:10.942Z,4.97
2019-04-20T23:07:18.833Z,5.15
2019-04-20T23:09:26.800Z,5.30
2019-04-20T23:11:35.316Z,5.47
2019-04-20T23:13:44.965Z,5.40
2019-04-20T23:15:55.400Z,5.47
2019-04-20T23:18:00.074Z,5.17
2019-04-20T23:20:15.139Z,4.97
2019-04-20T23:22:17.845Z,5.17
2019-04-20T23:24:24.854Z,4.83
2019-04-20T23:26:36.824Z,7.33
2019-04-20T23:28:46.901Z,5.85
2019-04-20T23:30:51.904Z,4.97
2019-04-20T23:32:57.870Z,4.65
2019-04-20T23:35:11.877Z,4.70
2019-04-20T23:37:20.403Z,4.20
2019-04-20T23:39:29.085Z,4.47
2019-04-20T23:41:31.621Z,4.80
2019-04-20T23:43:49.313Z,4.53
2019-04-20T23:46:16.998Z,4.50
2019-04-20T23:48:30.478Z,4.72
2019-04-20T23:50:47.578Z,4.67
2019-04-20T23:53:01.349Z,4.35
2019-04-20T23:54:58.142Z,4.50
2019-04-20T23:56:57.754Z,4.42
2019-04-20T23:59:04.688Z,4.20
